Terminal Aerodrome Forecast
Issued by NWS Shreveport, LA

Home | Current Version | Previous Version | Text Only | Print | Product List | Glossary On
Versions: 1 2 3 4 5 6 7 8 9 10 11 12 13 14 15 16 17 18 19 20 21 22 23 24 25 26 27 28
000
FTUS44 KSHV 230740 AAA
TAFTYR
TAF AMD
KTYR 230740Z 2308/2406 VRB03KT P6SM -TSRA SCT003 OVC012CB
      TEMPO 2308/2311 2SM TSRA BR OVC002CB
     FM231200 01003KT 4SM BR OVC004
     FM231500 06004KT 2SM BR OVC001
     FM232100 11005KT P6SM OVC007
     FM240000 14004KT P6SM OVC015
     FM240300 12005KT 4SM BR OVC007=

USA.gov is the U.S. government's official web portal to all federal, state and local government web resources and services.